Hundvaag 1 weather for Jun 2006
Month no. 228
Obs.
Da.
Temp. Dew Point Precip. Wind
Speed
Wind gusts Cloud cover Press. Humidity Wind dir. Sunny OPT
01.06.2006 11,1   0,0 0,0   10 1037,5 78,0   1 90,0 %
02.06.2006 9,1   2,5 0,0   0 1041,9 82,0     62,5 %
03.06.2006 11,6   8,5 4,8   4 1040,9 87,0 292,5 1 67,5 %
04.06.2006 10,4   0,0 0,0   2 1041,5 79,0   1 70,0 %
05.06.2006 12,4   0,0 1,6   10 1041,2 84,0 22,5 1 90,0 %
06.06.2006 11,4   0,0 0,0   8 1044,9 85,0   1 85,0 %
07.06.2006 11,6   0,0 0,0   5 1044,6 83,0   1 77,5 %
08.06.2006 10,3   0,0 0,0   0 1044,6 85,0   1 65,0 %
09.06.2006 11,1   0,0 0,0   5 1045,9 86,0   1 77,5 %
10.06.2006 11,9   0,0 1,6   0 1042,9 81,0 247,5 1 65,0 %
11.06.2006 13,9   0,1 4,8   10 1044,9 87,0 247,5 1 90,0 %
12.06.2006 20,3   0,0 1,6   10 1043,2 65,0 180,0 1 100,0 %
13.06.2006 19,3   0,0 1,6   10 1037,1 55,0 180,0 1 97,5 %
14.06.2006 11,3   0,0 8,0   7 1039,8 80,0 337,5 1 77,5 %
15.06.2006 11,6   0,0 0,0   10 1040,2 79,0   1 90,0 %
16.06.2006 13,9   0,0 8,0   6 1036,5 78,0 0,0 1 77,5 %
17.06.2006 14,4   0,0 0,0   3 1035,4 76,0   1 75,0 %
18.06.2006 16,4   0,1 6,4   0 1031,4 82,0 180,0   67,5 %
19.06.2006 14,8   5,0 6,4   0 1007,0 84,0 180,0 1 62,5 %
20.06.2006 15,5   1,0 4,8   0 1007,0 79,0 202,5 1 67,5 %
21.06.2006 13,2   7,3 11,3   0 999,9 81,0 157,5 1 55,0 %
22.06.2006 10,9   8,9 12,9   0 1015,1 75,0 112,5 1 52,5 %
23.06.2006 11,9   7,1 4,8   2 1024,9 86,0 292,5 1 62,5 %
24.06.2006 12,8   0,9 0,0   1 1014,8 80,0     70,0 %
25.06.2006 13,8   1,5 6,4   1 1015,8 85,0 180,0 1 67,5 %
26.06.2006 13,4   0,0 3,2   9 1036,8 79,0 22,5 1 90,0 %
27.06.2006 14,8   0,0 1,6   1 1032,4 80,0 337,5 1 70,0 %
28.06.2006 11,8   0,0 8,0   2 1015,8 74,0 0,0 1 65,0 %
29.06.2006 15,1   0,0 0,0   10 1041,2 82,0   1 95,0 %
30.06.2006 17,0   0,0 0,0   10 1045,9 83,0   1 95,0 %
                       
Avrg/Sum 13,2   42,9 3,3   4,5 1033,0 80,0 176,3 27 75,9 %